Time,TemperatureF,DewpointF,PressureIn,WindDirection,WindDirectionDegrees,WindSpeedMPH,WindSpeedGustMPH,Humidity,HourlyPrecipIn,Conditions,Clouds,dailyrainin,SoftwareType,DateUTC
2013-07-16 00:11:00,61.0,50.0,-100.00,SE,145,1.0,2.0,67,-99.99,,,-99.99,,2013-07-16 06:11:00,
2013-07-16 00:21:00,61.0,50.0,-100.00,SE,145,1.0,2.0,67,-99.99,,,-99.99,,2013-07-16 06:21:00,
2013-07-16 00:31:00,61.0,50.0,-100.00,SSE,160,1.0,2.0,66,-99.99,,,-99.99,,2013-07-16 06:31:00,
2013-07-16 00:43:00,61.0,50.0,-100.00,SSE,160,1.0,2.0,66,-99.99,,,-99.99,,2013-07-16 06:43:00,
2013-07-16 01:43:00,58.0,51.0,-100.00,SW,215,1.0,1.0,77,-99.99,,,-99.99,,2013-07-16 07:43:00,
2013-07-16 01:52:00,60.0,51.0,-100.00,SW,222,1.0,2.0,73,-99.99,,,-99.99,,2013-07-16 07:52:00,
2013-07-16 02:11:00,60.0,51.0,-100.00,SSW,206,1.0,1.0,72,-99.99,,,-99.99,,2013-07-16 08:11:00,
2013-07-16 02:22:00,59.0,51.0,-100.00,SSW,205,1.0,1.0,74,-99.99,,,-99.99,,2013-07-16 08:22:00,
2013-07-16 02:43:00,59.0,51.0,-100.00,SSW,201,1.0,1.0,75,-99.99,,,-99.99,,2013-07-16 08:43:00,
2013-07-16 02:52:00,59.0,51.0,-100.00,SSW,192,1.0,1.0,74,-99.99,,,-99.99,,2013-07-16 08:52:00,
2013-07-16 03:12:00,59.0,50.0,-100.00,SSW,200,1.0,1.0,72,-99.99,,,-99.99,,2013-07-16 09:12:00,
2013-07-16 03:22:00,59.0,50.0,-100.00,SSW,207,1.0,1.0,72,-99.99,,,-99.99,,2013-07-16 09:22:00,
2013-07-16 03:42:00,59.0,50.0,-100.00,SSW,202,1.0,1.0,73,-99.99,,,-99.99,,2013-07-16 09:42:00,
2013-07-16 03:52:00,59.0,51.0,-100.00,SSW,209,1.0,2.0,75,-99.99,,,-99.99,,2013-07-16 09:52:00,
2013-07-16 04:11:00,58.0,51.0,-100.00,SSW,202,1.0,1.0,77,-99.99,,,-99.99,,2013-07-16 10:11:00,
2013-07-16 04:22:00,58.0,51.0,-100.00,SSW,205,1.0,2.0,77,-99.99,,,-99.99,,2013-07-16 10:22:00,
2013-07-16 04:43:00,58.0,51.0,-100.00,SSW,211,1.0,1.0,77,-99.99,,,-99.99,,2013-07-16 10:43:00,
2013-07-16 04:52:00,57.0,50.0,-100.00,SSW,199,1.0,1.0,77,-99.99,,,-99.99,,2013-07-16 10:52:00,
2013-07-16 05:11:00,58.0,50.0,-100.00,SSW,208,1.0,2.0,76,-99.99,,,-99.99,,2013-07-16 11:11:00,
2013-07-16 05:22:00,58.0,50.0,-100.00,SSW,201,1.0,1.0,75,-99.99,,,-99.99,,2013-07-16 11:22:00,
2013-07-16 05:42:00,57.0,50.0,-100.00,SSW,211,1.0,1.0,76,-99.99,,,-99.99,,2013-07-16 11:42:00,
2013-07-16 05:52:00,57.0,50.0,-100.00,SSW,202,1.0,1.0,76,-99.99,,,-99.99,,2013-07-16 11:52:00,
2013-07-16 06:11:00,58.0,50.0,-100.00,SSW,195,1.0,1.0,75,-99.99,,,-99.99,,2013-07-16 12:11:00,
2013-07-16 06:32:00,58.0,50.0,-100.00,SSW,202,1.0,1.0,74,-99.99,,,-99.99,,2013-07-16 12:32:00,
2013-07-16 06:43:00,58.0,50.0,-100.00,SSW,200,1.0,1.0,74,-99.99,,,-99.99,,2013-07-16 12:43:00,
2013-07-16 06:53:00,58.0,49.0,-100.00,SSW,207,1.0,2.0,73,-99.99,,,-99.99,,2013-07-16 12:53:00,
2013-07-16 07:11:00,59.0,50.0,-100.00,SSW,204,1.0,2.0,72,-99.99,,,-99.99,,2013-07-16 13:11:00,
2013-07-16 07:42:00,59.0,50.0,-100.00,SSW,206,1.0,1.0,72,-99.99,,,-99.99,,2013-07-16 13:42:00,
2013-07-16 07:52:00,59.0,51.0,-100.00,South,191,1.0,1.0,74,-99.99,,,-99.99,,2013-07-16 13:52:00,
2013-07-16 08:11:00,59.0,51.0,-100.00,South,182,1.0,1.0,75,-99.99,,,-99.99,,2013-07-16 14:11:00,
2013-07-16 08:42:00,60.0,52.0,-100.00,South,189,1.0,1.0,75,-99.99,,,-99.99,,2013-07-16 14:42:00,
2013-07-16 08:52:00,61.0,52.0,-100.00,South,187,0.0,1.0,73,-99.99,,,-99.99,,2013-07-16 14:52:00,
2013-07-16 09:11:00,61.0,52.0,-100.00,South,185,0.0,1.0,73,-99.99,,,-99.99,,2013-07-16 15:11:00,
2013-07-16 09:21:00,62.0,52.0,-100.00,SSW,198,0.0,1.0,70,-99.99,,,-99.99,,2013-07-16 15:21:00,
2013-07-16 09:32:00,62.0,52.0,-100.00,SSW,198,0.0,1.0,70,-99.99,,,-99.99,,2013-07-16 15:32:00,
2013-07-16 09:43:00,63.0,53.0,-100.00,South,177,0.0,0.0,71,-99.99,,,-99.99,,2013-07-16 15:43:00,
2013-07-16 09:53:00,63.0,51.0,-100.00,South,173,1.0,1.0,65,-99.99,,,-99.99,,2013-07-16 15:53:00,
2013-07-16 10:11:00,64.0,52.0,-100.00,South,171,1.0,1.0,66,-99.99,,,-99.99,,2013-07-16 16:11:00,
2013-07-16 10:21:00,64.0,54.0,-100.00,South,183,0.0,1.0,69,-99.99,,,-99.99,,2013-07-16 16:21:00,
2013-07-16 10:32:00,64.0,54.0,-100.00,South,183,0.0,1.0,69,-99.99,,,-99.99,,2013-07-16 16:32:00,
2013-07-16 10:43:00,63.0,54.0,-100.00,South,186,0.0,1.0,72,-99.99,,,-99.99,,2013-07-16 16:43:00,
2013-07-16 10:52:00,63.0,52.0,-100.00,South,184,0.0,1.0,68,-99.99,,,-99.99,,2013-07-16 16:52:00,
2013-07-16 11:12:00,63.0,55.0,-100.00,South,174,1.0,1.0,74,-99.99,,,-99.99,,2013-07-16 17:12:00,
2013-07-16 11:22:00,66.0,55.0,-100.00,ESE,111,1.0,3.0,67,-99.99,,,-99.99,,2013-07-16 17:22:00,
2013-07-16 11:32:00,66.0,55.0,-100.00,ESE,111,1.0,3.0,67,-99.99,,,-99.99,,2013-07-16 17:32:00,
2013-07-16 11:43:00,69.0,53.0,-100.00,ESE,122,0.0,2.0,57,-99.99,,,-99.99,,2013-07-16 17:43:00,
2013-07-16 11:53:00,71.0,52.0,-100.00,SSW,193,1.0,4.0,51,-99.99,,,-99.99,,2013-07-16 17:53:00,
2013-07-16 12:11:00,70.0,56.0,-100.00,SE,128,1.0,2.0,61,-99.99,,,-99.99,,2013-07-16 18:11:00,
2013-07-16 12:22:00,70.0,56.0,-100.00,SE,128,1.0,2.0,61,-99.99,,,-99.99,,2013-07-16 18:22:00,
2013-07-16 12:43:00,70.0,56.0,-100.00,SW,217,1.0,6.0,61,-99.99,,,-99.99,,2013-07-16 18:43:00,
2013-07-16 12:52:00,70.0,56.0,-100.00,East,93,2.0,3.0,62,-99.99,,,-99.99,,2013-07-16 18:52:00,
2013-07-16 13:01:00,70.0,55.0,-100.00,ESE,118,1.0,2.0,58,-99.99,,,-99.99,,2013-07-16 19:01:00,
2013-07-16 13:11:00,70.0,55.0,-100.00,ESE,118,1.0,2.0,58,-99.99,,,-99.99,,2013-07-16 19:11:00,
2013-07-16 13:22:00,71.0,55.0,-100.00,South,184,1.0,2.0,58,-99.99,,,-99.99,,2013-07-16 19:22:00,
2013-07-16 13:43:00,72.0,55.0,-100.00,NNW,344,1.0,2.0,56,-99.99,,,-99.99,,2013-07-16 19:43:00,
2013-07-16 13:52:00,71.0,56.0,-100.00,East,97,1.0,2.0,59,-99.99,,,-99.99,,2013-07-16 19:52:00,
2013-07-16 14:11:00,71.0,55.0,-100.00,ESE,110,1.0,2.0,57,-99.99,,,-99.99,,2013-07-16 20:11:00,
2013-07-16 14:22:00,71.0,55.0,-100.00,ESE,110,1.0,2.0,57,-99.99,,,-99.99,,2013-07-16 20:22:00,
2013-07-16 14:30:00,73.0,55.0,-100.00,NNE,32,2.0,4.0,54,-99.99,,,-99.99,,2013-07-16 20:30:00,
2013-07-16 14:43:00,73.0,55.0,-100.00,ESE,104,1.0,3.0,54,-99.99,,,-99.99,,2013-07-16 20:43:00,
2013-07-16 15:01:00,72.0,53.0,-100.00,NNW,339,2.0,3.0,52,-99.99,,,-99.99,,2013-07-16 21:01:00,
2013-07-16 15:11:00,73.0,55.0,-100.00,NNE,32,2.0,4.0,54,-99.99,,,-99.99,,2013-07-16 21:11:00,
2013-07-16 15:22:00,73.0,55.0,-100.00,NNE,32,2.0,4.0,54,-99.99,,,-99.99,,2013-07-16 21:22:00,
2013-07-16 15:52:00,69.0,54.0,-100.00,North,350,0.0,3.0,58,-99.99,,,-99.99,,2013-07-16 21:52:00,
2013-07-16 16:01:00,69.0,55.0,-100.00,NE,50,2.0,4.0,61,-99.99,,,-99.99,,2013-07-16 22:01:00,
2013-07-16 16:11:00,71.0,57.0,-100.00,NNE,30,2.0,5.0,62,-99.99,,,-99.99,,2013-07-16 22:11:00,
2013-07-16 16:43:00,69.0,57.0,-100.00,NNE,31,1.0,3.0,66,-99.99,,,-99.99,,2013-07-16 22:43:00,
2013-07-16 16:52:00,71.0,58.0,-100.00,NE,53,2.0,5.0,63,-99.99,,,-99.99,,2013-07-16 22:52:00,
2013-07-16 17:11:00,68.0,55.0,-100.00,NE,34,1.0,4.0,64,-99.99,,,-99.99,,2013-07-16 23:11:00,
2013-07-16 17:22:00,66.0,55.0,-100.00,NNE,28,2.0,4.0,67,-99.99,,,-99.99,,2013-07-16 23:22:00,
2013-07-16 17:52:00,58.0,51.0,-100.00,NNW,339,2.0,4.0,78,-99.99,,,-99.99,,2013-07-16 23:52:00,
2013-07-16 18:01:00,58.0,51.0,-100.00,NNW,339,2.0,4.0,78,-99.99,,,-99.99,,2013-07-17 00:01:00,
2013-07-16 18:33:00,53.0,53.0,-100.00,SW,220,1.0,1.0,100,-99.99,,,-99.99,,2013-07-17 00:33:00,
2013-07-16 18:42:00,53.0,53.0,-100.00,SW,220,1.0,1.0,100,-99.99,,,-99.99,,2013-07-17 00:42:00,